sensor_id;sensor_type;location;lat;lon;timestamp;P1;durP1;ratioP1;P2;durP2;ratioP2
17714;SDS011;8977;50.902;4.314;2023-02-11T00:01:52;11.03;;;6.23;;
17714;SDS011;8977;50.902;4.314;2023-02-11T00:04:19;8.60;;;6.27;;
17714;SDS011;8977;50.902;4.314;2023-02-11T00:06:47;11.30;;;6.63;;
17714;SDS011;8977;50.902;4.314;2023-02-11T00:09:14;12.90;;;6.23;;
17714;SDS011;8977;50.902;4.314;2023-02-11T00:11:41;12.93;;;6.33;;
17714;SDS011;8977;50.902;4.314;2023-02-11T00:14:08;12.57;;;6.90;;
17714;SDS011;8977;50.902;4.314;2023-02-11T00:16:36;12.03;;;6.13;;
17714;SDS011;8977;50.902;4.314;2023-02-11T00:19:03;16.37;;;6.70;;
17714;SDS011;8977;50.902;4.314;2023-02-11T00:21:31;9.73;;;5.77;;
17714;SDS011;8977;50.902;4.314;2023-02-11T00:24:00;9.77;;;5.77;;
17714;SDS011;8977;50.902;4.314;2023-02-11T00:26:28;9.97;;;6.37;;
17714;SDS011;8977;50.902;4.314;2023-02-11T00:28:57;13.53;;;6.20;;
17714;SDS011;8977;50.902;4.314;2023-02-11T00:31:26;10.57;;;5.60;;
17714;SDS011;8977;50.902;4.314;2023-02-11T00:33:54;13.43;;;5.63;;
17714;SDS011;8977;50.902;4.314;2023-02-11T00:36:21;9.37;;;5.87;;
17714;SDS011;8977;50.902;4.314;2023-02-11T00:38:50;11.43;;;6.20;;
17714;SDS011;8977;50.902;4.314;2023-02-11T00:41:19;11.37;;;5.83;;
17714;SDS011;8977;50.902;4.314;2023-02-11T00:43:46;13.23;;;6.80;;
17714;SDS011;8977;50.902;4.314;2023-02-11T00:46:14;12.17;;;5.70;;
17714;SDS011;8977;50.902;4.314;2023-02-11T00:48:41;10.87;;;5.70;;
17714;SDS011;8977;50.902;4.314;2023-02-11T00:51:08;11.47;;;6.00;;
17714;SDS011;8977;50.902;4.314;2023-02-11T00:53:36;11.27;;;6.00;;
17714;SDS011;8977;50.902;4.314;2023-02-11T00:56:03;15.07;;;7.00;;
17714;SDS011;8977;50.902;4.314;2023-02-11T00:58:32;11.87;;;5.77;;
17714;SDS011;8977;50.902;4.314;2023-02-11T01:00:59;12.23;;;6.43;;
17714;SDS011;8977;50.902;4.314;2023-02-11T01:03:26;11.97;;;6.13;;
17714;SDS011;8977;50.902;4.314;2023-02-11T01:05:53;11.43;;;6.30;;
17714;SDS011;8977;50.902;4.314;2023-02-11T01:08:20;10.70;;;5.90;;
17714;SDS011;8977;50.902;4.314;2023-02-11T01:10:52;9.57;;;5.80;;
17714;SDS011;8977;50.902;4.314;2023-02-11T01:13:20;11.00;;;6.57;;
17714;SDS011;8977;50.902;4.314;2023-02-11T01:15:48;13.50;;;6.03;;
17714;SDS011;8977;50.902;4.314;2023-02-11T01:18:16;11.50;;;6.20;;
17714;SDS011;8977;50.902;4.314;2023-02-11T01:20:43;14.50;;;6.17;;
17714;SDS011;8977;50.902;4.314;2023-02-11T01:23:10;11.23;;;6.63;;
17714;SDS011;8977;50.902;4.314;2023-02-11T01:25:37;13.27;;;7.00;;
17714;SDS011;8977;50.902;4.314;2023-02-11T01:28:04;11.27;;;6.30;;
17714;SDS011;8977;50.902;4.314;2023-02-11T01:30:31;11.87;;;6.00;;
17714;SDS011;8977;50.902;4.314;2023-02-11T01:33:00;16.90;;;6.43;;
17714;SDS011;8977;50.902;4.314;2023-02-11T01:35:27;14.67;;;5.90;;
17714;SDS011;8977;50.902;4.314;2023-02-11T01:37:54;9.33;;;5.67;;
17714;SDS011;8977;50.902;4.314;2023-02-11T01:40:21;13.77;;;6.03;;
17714;SDS011;8977;50.902;4.314;2023-02-11T01:42:48;10.30;;;5.60;;
17714;SDS011;8977;50.902;4.314;2023-02-11T01:48:14;10.63;;;5.50;;
17714;SDS011;8977;50.902;4.314;2023-02-11T01:50:46;10.97;;;5.63;;
17714;SDS011;8977;50.902;4.314;2023-02-11T01:53:16;12.03;;;6.07;;
17714;SDS011;8977;50.902;4.314;2023-02-11T01:56:02;13.60;;;5.83;;
17714;SDS011;8977;50.902;4.314;2023-02-11T01:58:49;11.87;;;5.60;;
17714;SDS011;8977;50.902;4.314;2023-02-11T02:01:20;16.00;;;5.97;;
17714;SDS011;8977;50.902;4.314;2023-02-11T02:03:52;12.60;;;5.57;;
17714;SDS011;8977;50.902;4.314;2023-02-11T02:06:24;10.63;;;6.03;;
17714;SDS011;8977;50.902;4.314;2023-02-11T02:08:55;10.03;;;5.60;;
17714;SDS011;8977;50.902;4.314;2023-02-11T02:11:27;12.17;;;5.97;;
17714;SDS011;8977;50.902;4.314;2023-02-11T02:13:54;12.13;;;5.83;;
17714;SDS011;8977;50.902;4.314;2023-02-11T02:16:21;8.43;;;5.23;;
17714;SDS011;8977;50.902;4.314;2023-02-11T02:18:58;11.80;;;5.43;;
17714;SDS011;8977;50.902;4.314;2023-02-11T02:21:51;10.57;;;5.83;;
17714;SDS011;8977;50.902;4.314;2023-02-11T02:30:14;8.97;;;5.27;;
17714;SDS011;8977;50.902;4.314;2023-02-11T02:33:00;9.53;;;5.00;;
17714;SDS011;8977;50.902;4.314;2023-02-11T02:35:39;13.50;;;5.93;;
17714;SDS011;8977;50.902;4.314;2023-02-11T02:38:12;10.73;;;5.53;;
17714;SDS011;8977;50.902;4.314;2023-02-11T02:40:44;10.80;;;5.43;;
17714;SDS011;8977;50.902;4.314;2023-02-11T02:43:14;7.83;;;5.37;;
17714;SDS011;8977;50.902;4.314;2023-02-11T02:45:43;15.27;;;6.20;;
17714;SDS011;8977;50.902;4.314;2023-02-11T02:48:22;11.77;;;6.20;;
17714;SDS011;8977;50.902;4.314;2023-02-11T02:50:52;10.13;;;5.40;;
17714;SDS011;8977;50.902;4.314;2023-02-11T02:53:29;10.60;;;5.50;;
17714;SDS011;8977;50.902;4.314;2023-02-11T02:56:03;9.83;;;5.80;;
17714;SDS011;8977;50.902;4.314;2023-02-11T03:01:25;8.50;;;5.67;;
17714;SDS011;8977;50.902;4.314;2023-02-11T03:04:02;8.80;;;5.33;;
17714;SDS011;8977;50.902;4.314;2023-02-11T03:06:37;10.57;;;5.77;;
17714;SDS011;8977;50.902;4.314;2023-02-11T03:09:14;12.00;;;5.67;;
17714;SDS011;8977;50.902;4.314;2023-02-11T03:11:46;12.63;;;5.60;;
17714;SDS011;8977;50.902;4.314;2023-02-11T03:14:14;10.13;;;5.67;;
17714;SDS011;8977;50.902;4.314;2023-02-11T03:16:43;10.20;;;5.90;;
17714;SDS011;8977;50.902;4.314;2023-02-11T03:19:16;12.17;;;6.03;;
17714;SDS011;8977;50.902;4.314;2023-02-11T03:21:45;7.30;;;5.50;;
17714;SDS011;8977;50.902;4.314;2023-02-11T03:24:15;9.07;;;5.23;;
17714;SDS011;8977;50.902;4.314;2023-02-11T03:26:46;10.97;;;5.37;;
17714;SDS011;8977;50.902;4.314;2023-02-11T03:29:17;8.60;;;5.70;;
17714;SDS011;8977;50.902;4.314;2023-02-11T03:31:58;9.67;;;5.83;;
17714;SDS011;8977;50.902;4.314;2023-02-11T03:34:31;10.00;;;5.77;;
17714;SDS011;8977;50.902;4.314;2023-02-11T03:37:02;12.27;;;6.47;;
17714;SDS011;8977;50.902;4.314;2023-02-11T03:39:36;10.33;;;5.70;;
17714;SDS011;8977;50.902;4.314;2023-02-11T03:42:05;10.73;;;5.83;;
17714;SDS011;8977;50.902;4.314;2023-02-11T03:44:36;11.67;;;5.93;;
17714;SDS011;8977;50.902;4.314;2023-02-11T03:47:06;13.13;;;6.47;;
17714;SDS011;8977;50.902;4.314;2023-02-11T03:49:37;14.57;;;5.83;;
17714;SDS011;8977;50.902;4.314;2023-02-11T03:52:06;11.03;;;6.27;;
17714;SDS011;8977;50.902;4.314;2023-02-11T03:54:35;11.65;;;7.47;;
17714;SDS011;8977;50.902;4.314;2023-02-11T03:57:06;10.63;;;6.00;;
17714;SDS011;8977;50.902;4.314;2023-02-11T03:59:48;9.20;;;6.13;;
17714;SDS011;8977;50.902;4.314;2023-02-11T04:02:19;14.33;;;6.40;;
17714;SDS011;8977;50.902;4.314;2023-02-11T04:04:49;12.03;;;5.93;;
17714;SDS011;8977;50.902;4.314;2023-02-11T04:07:16;15.07;;;6.43;;
17714;SDS011;8977;50.902;4.314;2023-02-11T04:09:42;9.83;;;6.53;;
17714;SDS011;8977;50.902;4.314;2023-02-11T04:12:09;14.20;;;6.70;;
17714;SDS011;8977;50.902;4.314;2023-02-11T04:14:36;11.13;;;6.53;;
17714;SDS011;8977;50.902;4.314;2023-02-11T04:17:03;12.07;;;6.37;;
17714;SDS011;8977;50.902;4.314;2023-02-11T04:19:30;11.80;;;6.30;;
17714;SDS011;8977;50.902;4.314;2023-02-11T04:21:58;9.90;;;6.43;;
17714;SDS011;8977;50.902;4.314;2023-02-11T04:24:25;10.93;;;6.40;;
17714;SDS011;8977;50.902;4.314;2023-02-11T04:26:52;11.00;;;6.50;;
17714;SDS011;8977;50.902;4.314;2023-02-11T04:29:19;14.50;;;7.33;;
17714;SDS011;8977;50.902;4.314;2023-02-11T04:31:48;10.47;;;6.53;;
17714;SDS011;8977;50.902;4.314;2023-02-11T04:34:15;10.63;;;7.23;;
17714;SDS011;8977;50.902;4.314;2023-02-11T04:36:42;10.30;;;6.80;;
17714;SDS011;8977;50.902;4.314;2023-02-11T04:39:10;11.40;;;6.47;;
17714;SDS011;8977;50.902;4.314;2023-02-11T04:41:38;11.23;;;6.50;;
17714;SDS011;8977;50.902;4.314;2023-02-11T04:44:05;10.40;;;6.43;;
17714;SDS011;8977;50.902;4.314;2023-02-11T04:46:32;12.37;;;7.00;;
17714;SDS011;8977;50.902;4.314;2023-02-11T04:48:58;19.10;;;7.50;;
17714;SDS011;8977;50.902;4.314;2023-02-11T04:51:25;12.90;;;7.40;;
17714;SDS011;8977;50.902;4.314;2023-02-11T04:53:52;14.70;;;7.40;;
17714;SDS011;8977;50.902;4.314;2023-02-11T04:56:20;11.60;;;6.60;;
17714;SDS011;8977;50.902;4.314;2023-02-11T04:58:47;10.30;;;7.30;;
17714;SDS011;8977;50.902;4.314;2023-02-11T05:01:14;15.40;;;8.20;;
17714;SDS011;8977;50.902;4.314;2023-02-11T05:03:41;10.87;;;6.73;;
17714;SDS011;8977;50.902;4.314;2023-02-11T05:06:09;13.67;;;8.70;;
17714;SDS011;8977;50.902;4.314;2023-02-11T05:08:36;13.33;;;8.10;;
17714;SDS011;8977;50.902;4.314;2023-02-11T05:11:03;12.80;;;8.53;;
17714;SDS011;8977;50.902;4.314;2023-02-11T05:13:32;13.93;;;8.37;;
17714;SDS011;8977;50.902;4.314;2023-02-11T05:15:59;12.63;;;7.63;;
17714;SDS011;8977;50.902;4.314;2023-02-11T05:18:26;15.43;;;8.20;;
17714;SDS011;8977;50.902;4.314;2023-02-11T05:20:53;12.53;;;7.37;;
17714;SDS011;8977;50.902;4.314;2023-02-11T05:23:20;13.70;;;8.43;;
17714;SDS011;8977;50.902;4.314;2023-02-11T05:25:47;18.90;;;9.13;;
17714;SDS011;8977;50.902;4.314;2023-02-11T05:28:14;17.53;;;8.33;;
17714;SDS011;8977;50.902;4.314;2023-02-11T05:30:42;15.90;;;8.43;;
17714;SDS011;8977;50.902;4.314;2023-02-11T05:33:09;19.53;;;8.57;;
17714;SDS011;8977;50.902;4.314;2023-02-11T05:35:36;13.93;;;8.60;;
17714;SDS011;8977;50.902;4.314;2023-02-11T05:38:02;15.27;;;9.13;;
17714;SDS011;8977;50.902;4.314;2023-02-11T05:40:29;15.40;;;9.07;;
17714;SDS011;8977;50.902;4.314;2023-02-11T05:42:56;11.67;;;8.70;;
17714;SDS011;8977;50.902;4.314;2023-02-11T05:45:23;15.27;;;8.87;;
17714;SDS011;8977;50.902;4.314;2023-02-11T05:47:51;16.40;;;9.73;;
17714;SDS011;8977;50.902;4.314;2023-02-11T05:50:18;14.40;;;9.60;;
17714;SDS011;8977;50.902;4.314;2023-02-11T05:52:45;13.03;;;9.30;;
17714;SDS011;8977;50.902;4.314;2023-02-11T05:55:12;22.63;;;11.13;;
17714;SDS011;8977;50.902;4.314;2023-02-11T05:57:39;16.97;;;9.57;;
17714;SDS011;8977;50.902;4.314;2023-02-11T06:00:06;16.43;;;9.37;;
17714;SDS011;8977;50.902;4.314;2023-02-11T06:02:34;15.07;;;9.70;;
17714;SDS011;8977;50.902;4.314;2023-02-11T06:05:02;14.30;;;9.30;;
17714;SDS011;8977;50.902;4.314;2023-02-11T06:07:29;15.37;;;10.00;;
17714;SDS011;8977;50.902;4.314;2023-02-11T06:09:56;14.83;;;10.00;;
17714;SDS011;8977;50.902;4.314;2023-02-11T06:12:23;15.93;;;10.20;;
17714;SDS011;8977;50.902;4.314;2023-02-11T06:14:51;15.57;;;9.10;;
17714;SDS011;8977;50.902;4.314;2023-02-11T06:17:18;20.87;;;10.57;;
17714;SDS011;8977;50.902;4.314;2023-02-11T06:19:45;17.93;;;10.40;;
17714;SDS011;8977;50.902;4.314;2023-02-11T06:22:13;16.77;;;10.37;;
17714;SDS011;8977;50.902;4.314;2023-02-11T06:24:40;20.60;;;10.97;;
17714;SDS011;8977;50.902;4.314;2023-02-11T06:27:07;14.83;;;11.07;;
17714;SDS011;8977;50.902;4.314;2023-02-11T06:29:34;15.00;;;10.70;;
17714;SDS011;8977;50.902;4.314;2023-02-11T06:32:01;21.23;;;11.40;;
17714;SDS011;8977;50.902;4.314;2023-02-11T06:34:28;16.93;;;9.87;;
17714;SDS011;8977;50.902;4.314;2023-02-11T06:36:55;16.03;;;10.60;;
17714;SDS011;8977;50.902;4.314;2023-02-11T06:39:23;21.80;;;12.13;;
17714;SDS011;8977;50.902;4.314;2023-02-11T06:41:50;18.50;;;11.17;;
17714;SDS011;8977;50.902;4.314;2023-02-11T06:44:17;24.40;;;11.47;;
17714;SDS011;8977;50.902;4.314;2023-02-11T06:46:44;19.87;;;12.20;;
17714;SDS011;8977;50.902;4.314;2023-02-11T06:49:11;19.70;;;11.90;;
17714;SDS011;8977;50.902;4.314;2023-02-11T06:51:38;17.90;;;11.03;;
17714;SDS011;8977;50.902;4.314;2023-02-11T06:54:05;19.37;;;12.23;;
17714;SDS011;8977;50.902;4.314;2023-02-11T06:56:34;17.63;;;11.40;;
17714;SDS011;8977;50.902;4.314;2023-02-11T06:59:01;22.23;;;12.37;;
17714;SDS011;8977;50.902;4.314;2023-02-11T07:01:27;20.33;;;12.87;;
17714;SDS011;8977;50.902;4.314;2023-02-11T07:03:54;21.70;;;12.83;;
17714;SDS011;8977;50.902;4.314;2023-02-11T07:06:22;21.40;;;12.73;;
17714;SDS011;8977;50.902;4.314;2023-02-11T07:08:52;23.27;;;13.07;;
17714;SDS011;8977;50.902;4.314;2023-02-11T07:11:20;21.10;;;13.87;;
17714;SDS011;8977;50.902;4.314;2023-02-11T07:13:50;18.43;;;13.47;;
17714;SDS011;8977;50.902;4.314;2023-02-11T07:16:18;25.03;;;14.17;;
17714;SDS011;8977;50.902;4.314;2023-02-11T07:18:45;21.00;;;13.43;;
17714;SDS011;8977;50.902;4.314;2023-02-11T07:21:14;27.37;;;15.67;;
17714;SDS011;8977;50.902;4.314;2023-02-11T07:23:42;20.77;;;14.63;;
17714;SDS011;8977;50.902;4.314;2023-02-11T07:26:10;27.80;;;15.07;;
17714;SDS011;8977;50.902;4.314;2023-02-11T07:28:38;24.17;;;14.83;;
17714;SDS011;8977;50.902;4.314;2023-02-11T07:31:07;24.60;;;15.00;;
17714;SDS011;8977;50.902;4.314;2023-02-11T07:33:36;27.63;;;15.13;;
17714;SDS011;8977;50.902;4.314;2023-02-11T07:36:04;20.60;;;14.50;;
17714;SDS011;8977;50.902;4.314;2023-02-11T07:38:33;29.63;;;15.70;;
17714;SDS011;8977;50.902;4.314;2023-02-11T07:41:01;27.90;;;16.70;;
17714;SDS011;8977;50.902;4.314;2023-02-11T07:43:29;23.80;;;16.40;;
17714;SDS011;8977;50.902;4.314;2023-02-11T07:45:56;28.93;;;16.93;;
17714;SDS011;8977;50.902;4.314;2023-02-11T07:48:24;25.97;;;16.30;;
17714;SDS011;8977;50.902;4.314;2023-02-11T07:50:51;29.20;;;15.57;;
17714;SDS011;8977;50.902;4.314;2023-02-11T07:53:18;24.27;;;16.10;;
17714;SDS011;8977;50.902;4.314;2023-02-11T07:55:45;24.37;;;15.00;;
17714;SDS011;8977;50.902;4.314;2023-02-11T07:58:12;28.97;;;15.97;;
17714;SDS011;8977;50.902;4.314;2023-02-11T08:00:38;28.60;;;16.50;;
17714;SDS011;8977;50.902;4.314;2023-02-11T08:03:05;23.17;;;15.47;;
17714;SDS011;8977;50.902;4.314;2023-02-11T08:05:33;26.70;;;16.20;;
17714;SDS011;8977;50.902;4.314;2023-02-11T08:08:03;30.50;;;17.10;;
17714;SDS011;8977;50.902;4.314;2023-02-11T08:10:30;31.40;;;17.33;;
17714;SDS011;8977;50.902;4.314;2023-02-11T08:12:56;32.50;;;17.93;;
17714;SDS011;8977;50.902;4.314;2023-02-11T08:15:23;31.00;;;17.10;;
17714;SDS011;8977;50.902;4.314;2023-02-11T08:17:50;25.73;;;15.83;;
17714;SDS011;8977;50.902;4.314;2023-02-11T08:20:17;32.80;;;17.47;;
17714;SDS011;8977;50.902;4.314;2023-02-11T08:22:45;34.97;;;22.80;;
17714;SDS011;8977;50.902;4.314;2023-02-11T08:25:12;33.93;;;18.70;;
17714;SDS011;8977;50.902;4.314;2023-02-11T08:27:39;32.77;;;17.87;;
17714;SDS011;8977;50.902;4.314;2023-02-11T08:30:06;26.50;;;17.23;;
17714;SDS011;8977;50.902;4.314;2023-02-11T08:32:33;26.90;;;17.50;;
17714;SDS011;8977;50.902;4.314;2023-02-11T08:35:00;26.23;;;16.80;;
17714;SDS011;8977;50.902;4.314;2023-02-11T08:37:27;33.77;;;18.23;;
17714;SDS011;8977;50.902;4.314;2023-02-11T08:39:55;32.67;;;17.57;;
17714;SDS011;8977;50.902;4.314;2023-02-11T08:42:22;31.90;;;17.70;;
17714;SDS011;8977;50.902;4.314;2023-02-11T08:44:49;27.27;;;18.00;;
17714;SDS011;8977;50.902;4.314;2023-02-11T08:47:16;27.43;;;17.37;;
17714;SDS011;8977;50.902;4.314;2023-02-11T08:49:42;29.33;;;18.33;;
17714;SDS011;8977;50.902;4.314;2023-02-11T08:52:09;31.97;;;18.57;;
17714;SDS011;8977;50.902;4.314;2023-02-11T08:54:36;31.93;;;18.97;;
17714;SDS011;8977;50.902;4.314;2023-02-11T08:57:04;31.90;;;18.37;;
17714;SDS011;8977;50.902;4.314;2023-02-11T08:59:31;33.23;;;19.23;;
17714;SDS011;8977;50.902;4.314;2023-02-11T09:01:58;29.67;;;19.10;;
17714;SDS011;8977;50.902;4.314;2023-02-11T09:04:25;31.87;;;19.63;;
17714;SDS011;8977;50.902;4.314;2023-02-11T09:06:52;30.17;;;18.90;;
17714;SDS011;8977;50.902;4.314;2023-02-11T09:09:18;38.27;;;21.47;;
17714;SDS011;8977;50.902;4.314;2023-02-11T09:11:46;34.60;;;20.43;;
17714;SDS011;8977;50.902;4.314;2023-02-11T09:14:18;32.67;;;20.43;;
17714;SDS011;8977;50.902;4.314;2023-02-11T09:16:47;38.23;;;20.13;;
17714;SDS011;8977;50.902;4.314;2023-02-11T09:19:14;35.23;;;20.97;;
17714;SDS011;8977;50.902;4.314;2023-02-11T09:21:41;36.97;;;21.50;;
17714;SDS011;8977;50.902;4.314;2023-02-11T09:24:08;38.50;;;21.80;;
17714;SDS011;8977;50.902;4.314;2023-02-11T09:26:35;32.70;;;21.60;;
17714;SDS011;8977;50.902;4.314;2023-02-11T09:29:02;37.13;;;21.83;;
17714;SDS011;8977;50.902;4.314;2023-02-11T09:31:32;34.97;;;20.30;;
17714;SDS011;8977;50.902;4.314;2023-02-11T09:33:59;35.37;;;20.63;;
17714;SDS011;8977;50.902;4.314;2023-02-11T09:36:29;41.87;;;21.93;;
17714;SDS011;8977;50.902;4.314;2023-02-11T09:38:58;41.50;;;22.53;;
17714;SDS011;8977;50.902;4.314;2023-02-11T09:41:34;35.90;;;21.50;;
17714;SDS011;8977;50.902;4.314;2023-02-11T09:44:24;33.70;;;21.67;;
17714;SDS011;8977;50.902;4.314;2023-02-11T09:46:57;41.83;;;21.47;;
17714;SDS011;8977;50.902;4.314;2023-02-11T09:49:28;40.40;;;22.57;;
17714;SDS011;8977;50.902;4.314;2023-02-11T09:52:01;39.87;;;21.40;;
17714;SDS011;8977;50.902;4.314;2023-02-11T09:54:33;39.07;;;22.10;;
17714;SDS011;8977;50.902;4.314;2023-02-11T09:57:02;41.53;;;22.20;;
17714;SDS011;8977;50.902;4.314;2023-02-11T09:59:31;37.97;;;22.27;;
17714;SDS011;8977;50.902;4.314;2023-02-11T10:01:59;40.37;;;22.60;;
17714;SDS011;8977;50.902;4.314;2023-02-11T10:04:35;43.87;;;22.37;;
17714;SDS011;8977;50.902;4.314;2023-02-11T10:07:15;39.80;;;22.03;;
17714;SDS011;8977;50.902;4.314;2023-02-11T10:09:55;46.03;;;23.63;;
17714;SDS011;8977;50.902;4.314;2023-02-11T10:15:26;40.60;;;22.17;;
17714;SDS011;8977;50.902;4.314;2023-02-11T10:18:17;41.60;;;22.93;;
17714;SDS011;8977;50.902;4.314;2023-02-11T10:21:05;40.17;;;22.50;;
17714;SDS011;8977;50.902;4.314;2023-02-11T10:23:41;45.47;;;23.83;;
17714;SDS011;8977;50.902;4.314;2023-02-11T10:26:14;40.23;;;22.77;;
17714;SDS011;8977;50.902;4.314;2023-02-11T10:28:43;39.87;;;22.93;;
17714;SDS011;8977;50.902;4.314;2023-02-11T10:31:14;42.73;;;23.37;;
17714;SDS011;8977;50.902;4.314;2023-02-11T10:33:46;44.70;;;24.00;;
17714;SDS011;8977;50.902;4.314;2023-02-11T10:36:17;43.80;;;24.27;;
17714;SDS011;8977;50.902;4.314;2023-02-11T10:38:47;39.43;;;23.20;;
17714;SDS011;8977;50.902;4.314;2023-02-11T10:41:15;40.03;;;22.03;;
17714;SDS011;8977;50.902;4.314;2023-02-11T10:43:45;44.13;;;24.47;;
17714;SDS011;8977;50.902;4.314;2023-02-11T10:46:14;43.57;;;24.37;;
17714;SDS011;8977;50.902;4.314;2023-02-11T10:48:43;45.10;;;23.70;;
17714;SDS011;8977;50.902;4.314;2023-02-11T10:51:20;42.57;;;23.83;;
17714;SDS011;8977;50.902;4.314;2023-02-11T10:53:48;40.17;;;23.13;;
17714;SDS011;8977;50.902;4.314;2023-02-11T10:56:38;39.63;;;24.07;;
17714;SDS011;8977;50.902;4.314;2023-02-11T10:59:13;39.43;;;23.43;;
17714;SDS011;8977;50.902;4.314;2023-02-11T11:01:44;38.83;;;22.87;;
17714;SDS011;8977;50.902;4.314;2023-02-11T11:04:35;38.53;;;23.57;;
17714;SDS011;8977;50.902;4.314;2023-02-11T11:07:08;41.13;;;23.20;;
17714;SDS011;8977;50.902;4.314;2023-02-11T11:09:42;38.93;;;24.13;;
17714;SDS011;8977;50.902;4.314;2023-02-11T11:15:13;42.87;;;23.77;;
17714;SDS011;8977;50.902;4.314;2023-02-11T11:17:45;43.90;;;24.70;;
17714;SDS011;8977;50.902;4.314;2023-02-11T11:20:18;46.37;;;24.10;;
17714;SDS011;8977;50.902;4.314;2023-02-11T11:22:48;44.33;;;23.93;;
17714;SDS011;8977;50.902;4.314;2023-02-11T11:25:19;43.27;;;24.30;;
17714;SDS011;8977;50.902;4.314;2023-02-11T11:27:48;47.00;;;25.40;;
17714;SDS011;8977;50.902;4.314;2023-02-11T11:30:15;43.13;;;25.13;;
17714;SDS011;8977;50.902;4.314;2023-02-11T11:32:43;47.40;;;25.37;;
17714;SDS011;8977;50.902;4.314;2023-02-11T11:35:21;41.33;;;25.13;;
17714;SDS011;8977;50.902;4.314;2023-02-11T11:37:51;40.27;;;24.30;;
17714;SDS011;8977;50.902;4.314;2023-02-11T11:40:21;41.17;;;25.63;;
17714;SDS011;8977;50.902;4.314;2023-02-11T11:43:00;45.80;;;25.73;;
17714;SDS011;8977;50.902;4.314;2023-02-11T11:45:29;43.40;;;25.23;;
17714;SDS011;8977;50.902;4.314;2023-02-11T11:47:57;46.95;;;31.00;;
17714;SDS011;8977;50.902;4.314;2023-02-11T11:50:29;42.73;;;25.10;;
17714;SDS011;8977;50.902;4.314;2023-02-11T11:53:03;49.30;;;26.03;;
17714;SDS011;8977;50.902;4.314;2023-02-11T11:55:34;39.90;;;25.33;;
17714;SDS011;8977;50.902;4.314;2023-02-11T11:58:08;41.83;;;24.73;;
17714;SDS011;8977;50.902;4.314;2023-02-11T12:00:41;42.57;;;25.77;;
17714;SDS011;8977;50.902;4.314;2023-02-11T12:03:19;42.23;;;25.67;;
17714;SDS011;8977;50.902;4.314;2023-02-11T12:06:14;41.70;;;23.90;;
17714;SDS011;8977;50.902;4.314;2023-02-11T12:08:51;43.87;;;26.00;;
17714;SDS011;8977;50.902;4.314;2023-02-11T12:11:28;40.53;;;23.77;;
17714;SDS011;8977;50.902;4.314;2023-02-11T12:14:05;48.97;;;26.83;;
17714;SDS011;8977;50.902;4.314;2023-02-11T12:16:42;46.30;;;25.83;;
17714;SDS011;8977;50.902;4.314;2023-02-11T12:19:21;48.07;;;26.33;;
17714;SDS011;8977;50.902;4.314;2023-02-11T12:22:08;43.77;;;26.17;;
17714;SDS011;8977;50.902;4.314;2023-02-11T12:24:40;44.33;;;26.37;;
17714;SDS011;8977;50.902;4.314;2023-02-11T12:27:20;42.77;;;27.27;;
17714;SDS011;8977;50.902;4.314;2023-02-11T12:29:57;45.57;;;26.87;;
17714;SDS011;8977;50.902;4.314;2023-02-11T12:32:33;42.13;;;26.33;;
17714;SDS011;8977;50.902;4.314;2023-02-11T12:35:20;43.47;;;26.60;;
17714;SDS011;8977;50.902;4.314;2023-02-11T12:41:01;47.10;;;26.83;;
17714;SDS011;8977;50.902;4.314;2023-02-11T12:43:37;45.03;;;26.70;;
17714;SDS011;8977;50.902;4.314;2023-02-11T12:46:15;47.57;;;26.60;;
17714;SDS011;8977;50.902;4.314;2023-02-11T12:49:01;43.23;;;25.77;;
17714;SDS011;8977;50.902;4.314;2023-02-11T12:51:48;45.00;;;26.50;;
17714;SDS011;8977;50.902;4.314;2023-02-11T12:54:27;40.40;;;25.27;;
17714;SDS011;8977;50.902;4.314;2023-02-11T12:56:59;42.40;;;25.67;;
17714;SDS011;8977;50.902;4.314;2023-02-11T12:59:32;43.97;;;26.73;;
17714;SDS011;8977;50.902;4.314;2023-02-11T13:02:09;44.43;;;26.47;;
17714;SDS011;8977;50.902;4.314;2023-02-11T13:04:45;44.40;;;26.73;;
17714;SDS011;8977;50.902;4.314;2023-02-11T13:07:18;42.23;;;26.33;;
17714;SDS011;8977;50.902;4.314;2023-02-11T13:09:51;50.90;;;28.17;;
17714;SDS011;8977;50.902;4.314;2023-02-11T13:12:23;43.93;;;27.07;;
17714;SDS011;8977;50.902;4.314;2023-02-11T13:15:12;39.77;;;26.23;;
17714;SDS011;8977;50.902;4.314;2023-02-11T13:17:42;44.13;;;27.00;;
17714;SDS011;8977;50.902;4.314;2023-02-11T13:20:14;43.43;;;25.40;;
17714;SDS011;8977;50.902;4.314;2023-02-11T13:22:50;37.57;;;26.00;;
17714;SDS011;8977;50.902;4.314;2023-02-11T13:25:27;47.17;;;27.60;;
17714;SDS011;8977;50.902;4.314;2023-02-11T13:28:15;47.07;;;26.63;;
17714;SDS011;8977;50.902;4.314;2023-02-11T13:30:48;37.97;;;24.60;;
17714;SDS011;8977;50.902;4.314;2023-02-11T13:33:35;46.80;;;27.53;;
17714;SDS011;8977;50.902;4.314;2023-02-11T13:36:11;42.43;;;25.17;;
17714;SDS011;8977;50.902;4.314;2023-02-11T13:38:50;38.23;;;24.80;;
17714;SDS011;8977;50.902;4.314;2023-02-11T13:41:25;45.70;;;28.07;;
17714;SDS011;8977;50.902;4.314;2023-02-11T13:43:58;45.13;;;26.60;;
17714;SDS011;8977;50.902;4.314;2023-02-11T13:46:28;45.47;;;28.57;;
17714;SDS011;8977;50.902;4.314;2023-02-11T13:49:16;46.50;;;27.73;;
17714;SDS011;8977;50.902;4.314;2023-02-11T13:51:46;41.73;;;27.90;;
17714;SDS011;8977;50.902;4.314;2023-02-11T13:54:25;47.27;;;27.13;;
17714;SDS011;8977;50.902;4.314;2023-02-11T13:59:57;44.60;;;27.23;;
17714;SDS011;8977;50.902;4.314;2023-02-11T14:02:26;44.60;;;28.63;;
17714;SDS011;8977;50.902;4.314;2023-02-11T14:05:21;42.83;;;26.37;;
17714;SDS011;8977;50.902;4.314;2023-02-11T14:08:23;39.63;;;27.40;;
17714;SDS011;8977;50.902;4.314;2023-02-11T14:11:09;37.50;;;24.73;;
17714;SDS011;8977;50.902;4.314;2023-02-11T14:19:48;43.90;;;25.90;;
17714;SDS011;8977;50.902;4.314;2023-02-11T14:22:16;46.57;;;26.40;;
17714;SDS011;8977;50.902;4.314;2023-02-11T14:24:48;42.63;;;27.60;;
17714;SDS011;8977;50.902;4.314;2023-02-11T14:27:26;39.93;;;26.50;;
17714;SDS011;8977;50.902;4.314;2023-02-11T14:30:09;43.63;;;27.60;;
17714;SDS011;8977;50.902;4.314;2023-02-11T14:33:04;44.50;;;27.03;;
17714;SDS011;8977;50.902;4.314;2023-02-11T14:35:43;39.20;;;26.57;;
17714;SDS011;8977;50.902;4.314;2023-02-11T14:38:22;42.80;;;27.10;;
17714;SDS011;8977;50.902;4.314;2023-02-11T14:41:00;42.73;;;28.00;;
17714;SDS011;8977;50.902;4.314;2023-02-11T14:43:35;40.63;;;26.67;;
17714;SDS011;8977;50.902;4.314;2023-02-11T14:46:07;43.77;;;29.27;;
17714;SDS011;8977;50.902;4.314;2023-02-11T14:48:35;40.00;;;26.20;;
17714;SDS011;8977;50.902;4.314;2023-02-11T14:51:05;44.47;;;27.63;;
17714;SDS011;8977;50.902;4.314;2023-02-11T14:53:34;46.43;;;29.77;;
17714;SDS011;8977;50.902;4.314;2023-02-11T14:56:02;36.20;;;24.97;;
17714;SDS011;8977;50.902;4.314;2023-02-11T14:58:44;43.13;;;29.20;;
17714;SDS011;8977;50.902;4.314;2023-02-11T15:01:25;40.97;;;26.93;;
17714;SDS011;8977;50.902;4.314;2023-02-11T15:03:54;45.80;;;29.10;;
17714;SDS011;8977;50.902;4.314;2023-02-11T15:06:23;45.73;;;28.20;;
17714;SDS011;8977;50.902;4.314;2023-02-11T15:08:54;43.90;;;29.43;;
17714;SDS011;8977;50.902;4.314;2023-02-11T15:11:26;36.57;;;26.33;;
17714;SDS011;8977;50.902;4.314;2023-02-11T15:13:56;41.47;;;28.33;;
17714;SDS011;8977;50.902;4.314;2023-02-11T15:16:28;41.53;;;28.70;;
17714;SDS011;8977;50.902;4.314;2023-02-11T15:18:55;50.13;;;33.53;;
17714;SDS011;8977;50.902;4.314;2023-02-11T15:21:26;49.00;;;32.50;;
17714;SDS011;8977;50.902;4.314;2023-02-11T15:23:57;48.20;;;32.80;;
17714;SDS011;8977;50.902;4.314;2023-02-11T15:26:26;43.63;;;30.27;;
17714;SDS011;8977;50.902;4.314;2023-02-11T15:28:53;42.63;;;30.30;;
17714;SDS011;8977;50.902;4.314;2023-02-11T15:31:20;44.60;;;30.77;;
17714;SDS011;8977;50.902;4.314;2023-02-11T15:33:50;43.17;;;28.93;;